Time;durP1;ratioP1;P1;durP2;ratioP2;P2;SDS_P1;SDS_P2;PMS_P1;PMS_P2;Temp;Humidity;BMP_temperature;BMP_pressure;BME280_temperature;BME280_humidity;BME280_pressure;Samples;Min_cycle;Max_cycle;Signal;HPM_P1;HPM_P2
2023/05/13 00:02:01;;;;;;;27.00;24.70;;;8.60;99.90;;;;;;5187184;28;20022;-73
2023/05/13 00:04:31;;;;;;;24.95;22.90;;;8.60;99.90;;;;;;5187485;28;20054;-73
2023/05/13 00:07:02;;;;;;;27.02;24.92;;;8.80;99.90;;;;;;5187490;28;20029;-73
2023/05/13 00:09:33;;;;;;;25.98;24.08;;;8.80;99.90;;;;;;5187154;28;20112;-72
2023/05/13 00:12:04;;;;;;;26.77;24.88;;;8.80;99.90;;;;;;5187203;28;20022;-73
2023/05/13 00:14:35;;;;;;;25.75;23.75;;;8.80;99.90;;;;;;5187220;28;20378;-73
2023/05/13 00:17:06;;;;;;;25.00;23.13;;;8.80;99.90;;;;;;5186897;28;20138;-72
2023/05/13 00:19:37;;;;;;;24.00;22.27;;;8.80;99.90;;;;;;5189458;28;20097;-75
2023/05/13 00:22:08;;;;;;;22.27;20.27;;;8.70;99.90;;;;;;5189712;28;20114;-73
2023/05/13 00:24:39;;;;;;;24.08;21.98;;;8.50;99.90;;;;;;5207418;28;20080;-73
2023/05/13 00:27:10;;;;;;;23.17;21.58;;;8.40;99.90;;;;;;5189263;28;20049;-73
2023/05/13 00:29:41;;;;;;;22.63;21.13;;;8.50;99.90;;;;;;5189509;28;20112;-73
2023/05/13 00:32:12;;;;;;;25.25;23.52;;;8.40;99.90;;;;;;5189489;28;20557;-75
2023/05/13 00:34:42;;;;;;;23.02;21.40;;;8.30;99.90;;;;;;5207270;28;20508;-73
2023/05/13 00:37:14;;;;;;;23.70;22.00;;;8.40;99.90;;;;;;5189290;28;20034;-72
2023/05/13 00:39:44;;;;;;;24.17;22.38;;;8.40;99.90;;;;;;5189424;28;20784;-72
2023/05/13 00:42:15;;;;;;;22.13;20.55;;;8.20;99.90;;;;;;5207148;28;20115;-73
2023/05/13 00:44:46;;;;;;;23.30;21.58;;;8.20;99.90;;;;;;5188990;28;20037;-74
2023/05/13 00:47:17;;;;;;;23.13;21.33;;;8.30;99.90;;;;;;5206199;28;20563;-73
2023/05/13 00:49:48;;;;;;;24.42;22.73;;;8.40;99.90;;;;;;5206972;28;20377;-73
2023/05/13 00:52:19;;;;;;;22.88;21.27;;;8.20;99.90;;;;;;5206911;28;20030;-73
2023/05/13 00:54:50;;;;;;;21.00;19.60;;;8.40;99.90;;;;;;5206974;28;20033;-73
2023/05/13 00:57:21;;;;;;;22.77;20.90;;;8.40;99.90;;;;;;5206601;28;20045;-73
2023/05/13 00:59:52;;;;;;;23.30;21.58;;;8.20;99.90;;;;;;5189053;28;20029;-72
2023/05/13 01:03:02;;;;;;;22.95;21.35;;;8.30;99.90;;;;;;5206711;28;20105;-75
2023/05/13 01:05:55;;;;;;;23.92;21.98;;;8.30;99.90;;;;;;5206650;28;20465;-76
2023/05/13 01:08:38;;;;;;;23.10;21.55;;;8.20;99.90;;;;;;5188973;28;20055;-73
2023/05/13 01:11:21;;;;;;;23.15;21.52;;;8.20;99.90;;;;;;5206434;28;20025;-73
2023/05/13 01:14:05;;;;;;;24.23;22.52;;;8.10;99.90;;;;;;5206619;28;20025;-73
2023/05/13 01:16:44;;;;;;;21.77;20.25;;;8.30;99.90;;;;;;5206086;28;20041;-73
2023/05/13 01:19:38;;;;;;;22.48;20.98;;;8.30;99.90;;;;;;5206295;28;20108;-73
2023/05/13 01:22:09;;;;;;;22.85;21.15;;;8.20;99.90;;;;;;5206144;28;20029;-73
2023/05/13 01:24:39;;;;;;;22.05;20.45;;;8.10;99.90;;;;;;5188356;28;20066;-73
2023/05/13 01:27:11;;;;;;;22.85;21.23;;;8.30;99.90;;;;;;5206150;28;20054;-73
2023/05/13 01:29:43;;;;;;;20.40;18.90;;;7.70;99.90;;;;;;5206117;28;20053;-73
2023/05/13 01:32:15;;;;;;;21.50;19.67;;;8.00;99.90;;;;;;5188374;28;20122;-73
2023/05/13 01:34:46;;;;;;;21.40;19.77;;;7.80;99.90;;;;;;5205916;28;20025;-72
2023/05/13 01:37:18;;;;;;;22.10;20.40;;;8.10;99.90;;;;;;5205779;28;20541;-73
2023/05/13 01:39:50;;;;;;;21.83;20.15;;;7.80;99.90;;;;;;5206107;28;20041;-75
2023/05/13 01:42:22;;;;;;;23.40;21.77;;;7.80;99.90;;;;;;5206139;28;20041;-72
2023/05/13 01:44:53;;;;;;;22.52;21.02;;;7.90;99.90;;;;;;5206029;28;20022;-73
2023/05/13 01:47:24;;;;;;;25.13;23.38;;;7.90;99.90;;;;;;5205910;28;20029;-73
2023/05/13 01:49:55;;;;;;;21.67;20.17;;;7.80;99.90;;;;;;5187987;28;20017;-73
2023/05/13 01:52:26;;;;;;;23.05;21.40;;;7.80;99.90;;;;;;5205431;28;20029;-72
2023/05/13 01:54:57;;;;;;;21.60;20.27;;;8.10;99.90;;;;;;5205585;28;20031;-73
2023/05/13 01:57:28;;;;;;;21.63;20.05;;;8.10;99.90;;;;;;5205267;28;20041;-73
2023/05/13 01:59:58;;;;;;;21.20;19.70;;;8.00;99.90;;;;;;5205585;28;20033;-73
2023/05/13 02:02:29;;;;;;;21.80;20.10;;;7.70;99.90;;;;;;5205617;28;20131;-73
2023/05/13 02:05:00;;;;;;;22.55;20.95;;;7.80;99.90;;;;;;5205707;28;20481;-73
2023/05/13 02:07:33;;;;;;;23.42;21.73;;;7.80;99.90;;;;;;5187906;28;20030;-73
2023/05/13 02:10:04;;;;;;;23.13;21.50;;;7.40;99.90;;;;;;5205559;28;20026;-73
2023/05/13 02:12:35;;;;;;;25.83;24.10;;;7.60;99.90;;;;;;5205537;28;20022;-74
2023/05/13 02:15:07;;;;;;;24.08;22.48;;;7.70;99.90;;;;;;5205487;28;20026;-73
2023/05/13 02:17:38;;;;;;;23.75;22.20;;;7.50;99.90;;;;;;5205406;28;20049;-74
2023/05/13 02:20:09;;;;;;;23.48;21.98;;;7.70;99.90;;;;;;5187669;28;20112;-73
2023/05/13 02:22:40;;;;;;;25.10;23.50;;;7.60;99.90;;;;;;5205302;28;20095;-72
2023/05/13 02:25:11;;;;;;;22.33;20.83;;;7.60;99.90;;;;;;5205553;28;20025;-75
2023/05/13 02:27:42;;;;;;;22.63;21.02;;;7.40;99.90;;;;;;5187763;28;20405;-73
2023/05/13 02:30:13;;;;;;;25.38;23.77;;;7.40;99.90;;;;;;5205616;28;20030;-73
2023/05/13 02:32:43;;;;;;;26.10;24.40;;;7.60;99.90;;;;;;5195032;28;20037;-73
2023/05/13 02:35:14;;;;;;;24.40;22.67;;;7.40;99.90;;;;;;5204952;28;20128;-73
2023/05/13 02:37:46;;;;;;;22.10;20.70;;;7.50;99.90;;;;;;5199179;28;20040;-73
2023/05/13 02:40:16;;;;;;;23.00;21.33;;;7.50;99.90;;;;;;5187121;28;20588;-73
2023/05/13 02:42:47;;;;;;;21.17;19.83;;;7.70;99.90;;;;;;5205138;28;20102;-72
2023/05/13 02:45:18;;;;;;;21.00;19.70;;;7.60;99.90;;;;;;5205351;28;20025;-73
2023/05/13 02:47:49;;;;;;;21.35;19.95;;;7.40;99.90;;;;;;5205127;28;20493;-73
2023/05/13 02:50:20;;;;;;;22.35;20.73;;;7.20;99.90;;;;;;5205102;28;20436;-72
2023/05/13 02:52:51;;;;;;;24.40;22.67;;;7.30;99.90;;;;;;5205142;28;20030;-72
2023/05/13 02:55:22;;;;;;;24.17;22.42;;;7.20;99.90;;;;;;5205082;28;20053;-72
2023/05/13 02:57:53;;;;;;;21.40;20.00;;;7.20;99.90;;;;;;5205183;28;20048;-73
2023/05/13 03:00:23;;;;;;;21.25;19.75;;;7.40;99.90;;;;;;5205015;28;20083;-73
2023/05/13 03:02:55;;;;;;;22.23;20.73;;;7.00;99.90;;;;;;5205113;28;20109;-72
2023/05/13 03:05:26;;;;;;;20.88;19.58;;;7.00;99.90;;;;;;5205068;28;20025;-72
2023/05/13 03:07:57;;;;;;;23.13;21.48;;;7.40;99.90;;;;;;5187309;28;20017;-73
2023/05/13 03:10:28;;;;;;;22.77;21.20;;;7.40;99.90;;;;;;5206749;28;20412;-72
2023/05/13 03:12:58;;;;;;;21.13;19.70;;;7.00;99.90;;;;;;5208790;28;20026;-73
2023/05/13 03:15:29;;;;;;;20.48;19.27;;;7.40;99.90;;;;;;5208172;28;20029;-72
2023/05/13 03:18:00;;;;;;;22.38;20.90;;;7.30;99.90;;;;;;5208623;28;20378;-73
2023/05/13 03:20:31;;;;;;;21.10;19.70;;;7.20;99.90;;;;;;5208739;28;20033;-75
2023/05/13 03:23:02;;;;;;;21.42;19.75;;;7.20;99.90;;;;;;5208749;28;20474;-72
2023/05/13 03:25:33;;;;;;;22.58;20.88;;;7.30;99.90;;;;;;5208333;28;20477;-73
2023/05/13 03:28:04;;;;;;;23.30;21.80;;;7.30;99.90;;;;;;5190597;28;20037;-72
2023/05/13 03:30:35;;;;;;;23.25;21.85;;;7.40;99.90;;;;;;5208563;28;20025;-72
2023/05/13 03:33:06;;;;;;;21.58;20.38;;;7.50;99.90;;;;;;5190681;28;20026;-73
2023/05/13 03:35:37;;;;;;;25.02;23.33;;;7.50;99.90;;;;;;5190813;28;20087;-72
2023/05/13 03:38:08;;;;;;;23.27;21.75;;;7.50;99.90;;;;;;5208007;28;20065;-73
2023/05/13 03:40:39;;;;;;;24.70;22.98;;;7.50;99.90;;;;;;5190522;28;20481;-73
2023/05/13 03:43:10;;;;;;;25.08;23.38;;;7.60;99.90;;;;;;5208266;28;20105;-73
2023/05/13 03:45:41;;;;;;;24.52;23.02;;;7.50;99.90;;;;;;5207764;28;20068;-73
2023/05/13 03:48:11;;;;;;;24.98;23.17;;;7.60;99.90;;;;;;5207999;28;20032;-72
2023/05/13 03:50:42;;;;;;;27.75;25.77;;;7.50;99.90;;;;;;5208591;28;20041;-73
2023/05/13 03:53:13;;;;;;;22.90;21.40;;;7.40;99.90;;;;;;5207584;28;20059;-73
2023/05/13 03:55:45;;;;;;;32.42;29.60;;;7.40;99.90;;;;;;5207465;28;20099;-73
2023/05/13 03:58:16;;;;;;;34.53;31.33;;;7.40;99.90;;;;;;5207844;28;20489;-72
2023/05/13 04:00:47;;;;;;;28.55;25.95;;;7.70;99.90;;;;;;5207573;28;20422;-75
2023/05/13 04:03:18;;;;;;;27.48;25.48;;;7.80;99.90;;;;;;5208067;28;20699;-74
2023/05/13 04:05:50;;;;;;;24.45;22.35;;;8.00;99.90;;;;;;5207821;28;20116;-73
2023/05/13 04:08:21;;;;;;;24.60;22.80;;;8.00;99.90;;;;;;5207664;28;20049;-72
2023/05/13 04:10:52;;;;;;;22.23;20.73;;;8.20;99.90;;;;;;5207677;28;20060;-73
2023/05/13 04:13:23;;;;;;;22.33;20.65;;;8.00;99.90;;;;;;5207858;28;20030;-72
2023/05/13 04:15:54;;;;;;;22.20;20.67;;;8.20;99.90;;;;;;5207575;28;20428;-73
2023/05/13 04:18:25;;;;;;;21.70;20.20;;;8.30;99.90;;;;;;5207399;28;20029;-75
2023/05/13 04:20:56;;;;;;;22.17;20.67;;;8.40;99.90;;;;;;5207132;28;20145;-73
2023/05/13 04:23:26;;;;;;;22.42;20.83;;;8.70;99.90;;;;;;5207130;28;20078;-73
2023/05/13 04:25:57;;;;;;;21.85;20.35;;;8.90;99.90;;;;;;5207159;28;20426;-73
2023/05/13 04:28:28;;;;;;;20.25;18.85;;;9.00;99.90;;;;;;5207037;28;20079;-73
2023/05/13 04:30:59;;;;;;;19.00;17.50;;;9.00;99.90;;;;;;5207356;28;20112;-73
2023/05/13 04:33:30;;;;;;;19.17;17.77;;;9.20;99.90;;;;;;5207191;28;20030;-73
2023/05/13 04:36:01;;;;;;;21.17;19.73;;;9.40;99.90;;;;;;5207125;28;20378;-73
2023/05/13 04:38:32;;;;;;;18.25;16.88;;;9.40;99.90;;;;;;5207031;28;20489;-72
2023/05/13 04:41:03;;;;;;;19.35;18.08;;;9.40;99.90;;;;;;5189169;28;20037;-73
2023/05/13 04:43:34;;;;;;;17.55;16.27;;;9.60;99.90;;;;;;5189384;28;20068;-73
2023/05/13 04:46:05;;;;;;;17.50;16.27;;;9.60;99.90;;;;;;5189193;28;20085;-72
2023/05/13 04:48:35;;;;;;;16.88;15.63;;;9.90;99.90;;;;;;5206618;28;20056;-73
2023/05/13 04:51:06;;;;;;;17.02;15.85;;;9.90;99.90;;;;;;5206997;28;20481;-73
2023/05/13 04:53:37;;;;;;;16.65;15.23;;;10.00;99.90;;;;;;5206772;28;20050;-72
2023/05/13 04:56:08;;;;;;;17.30;16.15;;;10.10;99.90;;;;;;5206623;28;20033;-75
2023/05/13 04:58:39;;;;;;;18.85;17.25;;;10.30;99.90;;;;;;5206934;28;20489;-72
2023/05/13 05:01:10;;;;;;;17.85;16.48;;;10.40;99.90;;;;;;5188768;28;20022;-75
2023/05/13 05:03:41;;;;;;;18.95;17.27;;;10.60;99.90;;;;;;5206520;28;20448;-73
2023/05/13 05:06:11;;;;;;;18.67;17.27;;;10.70;99.90;;;;;;5206339;28;20104;-72
2023/05/13 05:08:42;;;;;;;18.92;17.60;;;10.60;99.90;;;;;;5206100;28;20433;-72
2023/05/13 05:11:13;;;;;;;21.33;19.70;;;10.80;99.90;;;;;;5206374;28;20036;-73
2023/05/13 05:13:44;;;;;;;22.92;21.02;;;11.00;99.90;;;;;;5207152;28;20436;-73
2023/05/13 05:16:15;;;;;;;20.35;18.90;;;11.30;99.90;;;;;;5206173;28;20087;-72
2023/05/13 05:18:46;;;;;;;22.50;20.90;;;11.70;99.90;;;;;;5206198;28;20376;-73
2023/05/13 05:21:17;;;;;;;23.40;21.42;;;11.70;99.90;;;;;;5188631;28;20040;-73
2023/05/13 05:23:48;;;;;;;25.15;23.10;;;12.10;99.90;;;;;;5205914;28;20038;-73
2023/05/13 05:26:19;;;;;;;26.83;24.63;;;12.20;99.90;;;;;;5205785;28;20037;-72
2023/05/13 05:28:52;;;;;;;28.15;25.95;;;12.70;99.90;;;;;;5188796;28;20060;-73
2023/05/13 05:31:22;;;;;;;28.67;26.67;;;12.60;99.90;;;;;;5205963;28;20034;-72
2023/05/13 05:33:55;;;;;;;30.25;28.00;;;12.70;99.90;;;;;;5205191;28;20021;-73
2023/05/13 05:36:26;;;;;;;27.40;25.17;;;12.90;99.90;;;;;;5205884;28;20165;-73
2023/05/13 05:38:57;;;;;;;29.00;26.75;;;13.00;99.90;;;;;;5205941;28;20044;-73
2023/05/13 05:41:28;;;;;;;26.77;24.83;;;13.10;99.90;;;;;;5187757;28;20112;-72
2023/05/13 05:43:59;;;;;;;26.58;24.55;;;13.30;99.90;;;;;;5205780;28;20033;-73
2023/05/13 05:46:30;;;;;;;25.58;23.33;;;13.40;99.90;;;;;;5205743;28;20032;-73
2023/05/13 05:49:02;;;;;;;28.13;26.20;;;13.60;99.90;;;;;;5205994;28;20021;-73
2023/05/13 05:51:33;;;;;;;26.23;24.35;;;13.60;99.90;;;;;;5205660;28;20026;-73
2023/05/13 05:54:04;;;;;;;23.90;22.17;;;13.60;99.90;;;;;;5187810;28;20477;-74
2023/05/13 05:56:35;;;;;;;25.27;23.38;;;13.60;99.90;;;;;;5205361;28;20022;-72
2023/05/13 05:59:05;;;;;;;23.80;22.17;;;13.70;99.90;;;;;;5205516;28;20044;-72
2023/05/13 06:01:36;;;;;;;25.52;23.60;;;13.80;99.90;;;;;;5205577;28;20025;-73
2023/05/13 06:04:07;;;;;;;25.55;23.75;;;14.00;99.90;;;;;;5205793;28;20087;-72
2023/05/13 06:06:39;;;;;;;24.75;23.10;;;14.00;99.90;;;;;;5205583;28;20029;-73
2023/05/13 06:09:10;;;;;;;28.05;25.80;;;13.90;99.90;;;;;;5187821;28;20128;-73
2023/05/13 06:11:40;;;;;;;27.85;25.25;;;13.70;99.90;;;;;;5187827;28;20045;-72
2023/05/13 06:14:11;;;;;;;24.80;22.85;;;13.70;99.90;;;;;;5205162;28;20018;-73
2023/05/13 06:16:42;;;;;;;27.55;25.23;;;13.60;99.90;;;;;;5187429;28;20037;-72
2023/05/13 06:19:13;;;;;;;24.98;23.08;;;14.00;99.90;;;;;;5205162;28;20026;-73
2023/05/13 06:21:44;;;;;;;24.33;22.48;;;14.20;99.90;;;;;;5205487;28;20033;-72
2023/05/13 06:24:15;;;;;;;25.30;23.70;;;14.00;99.90;;;;;;5205192;28;20033;-73
2023/05/13 06:26:46;;;;;;;25.20;23.27;;;14.20;99.90;;;;;;5187403;28;20084;-73
2023/05/13 06:29:17;;;;;;;27.15;25.35;;;14.30;99.90;;;;;;5187713;28;20034;-75
2023/05/13 06:31:48;;;;;;;26.75;24.55;;;14.50;99.90;;;;;;5205262;28;20029;-72
2023/05/13 06:34:19;;;;;;;27.10;25.27;;;14.40;99.90;;;;;;5205045;28;20056;-72
2023/05/13 06:36:50;;;;;;;24.58;22.77;;;14.40;99.90;;;;;;5205150;28;20116;-72
2023/05/13 06:39:20;;;;;;;24.08;21.90;;;14.20;99.90;;;;;;5205448;28;20024;-73
2023/05/13 06:41:51;;;;;;;23.98;22.35;;;13.90;99.90;;;;;;5205354;28;20095;-73
2023/05/13 06:44:22;;;;;;;25.52;22.17;;;13.80;99.90;;;;;;5205534;28;20416;-72
2023/05/13 06:46:53;;;;;;;23.63;21.73;;;13.90;99.90;;;;;;5191669;28;20030;-73
2023/05/13 06:49:24;;;;;;;23.40;21.77;;;14.40;99.90;;;;;;5209310;28;20033;-73
2023/05/13 06:51:55;;;;;;;23.42;21.83;;;14.60;99.90;;;;;;5209084;28;20025;-72
2023/05/13 06:54:26;;;;;;;22.75;21.20;;;14.80;99.90;;;;;;5191259;28;20477;-72
2023/05/13 06:56:57;;;;;;;21.40;20.00;;;15.00;99.90;;;;;;5209131;28;20025;-72
2023/05/13 06:59:29;;;;;;;19.38;17.98;;;15.10;99.90;;;;;;5209085;28;20045;-73
2023/05/13 07:02:00;;;;;;;21.65;20.08;;;15.10;99.90;;;;;;5203462;28;20021;-74
2023/05/13 07:04:30;;;;;;;22.63;20.92;;;15.30;99.90;;;;;;5188415;28;20037;-73
2023/05/13 07:07:01;;;;;;;22.45;21.00;;;15.40;99.90;;;;;;5205351;28;20021;-72
2023/05/13 07:09:33;;;;;;;20.95;19.58;;;15.40;99.90;;;;;;5208749;28;20056;-73
2023/05/13 07:12:04;;;;;;;25.10;23.35;;;15.10;99.90;;;;;;5208446;28;20021;-73
2023/05/13 07:14:35;;;;;;;22.63;21.13;;;15.20;99.90;;;;;;5193369;28;20518;-73
2023/05/13 07:17:06;;;;;;;23.00;21.15;;;15.30;99.90;;;;;;5188008;28;20032;-72
2023/05/13 07:19:36;;;;;;;21.73;20.17;;;15.10;99.90;;;;;;5188521;28;20038;-77
2023/05/13 07:22:07;;;;;;;24.38;22.48;;;14.90;99.90;;;;;;5199599;28;20025;-73
2023/05/13 07:24:39;;;;;;;22.27;20.88;;;15.20;99.90;;;;;;5190613;28;20030;-73
2023/05/13 07:27:10;;;;;;;22.15;20.65;;;15.20;99.90;;;;;;5190398;28;20493;-73
2023/05/13 07:29:41;;;;;;;23.88;21.92;;;15.30;99.90;;;;;;5208286;28;20034;-73
2023/05/13 07:32:12;;;;;;;23.48;21.85;;;15.10;99.90;;;;;;5190514;28;20144;-73
2023/05/13 07:34:43;;;;;;;21.50;20.00;;;15.20;99.90;;;;;;5208286;28;20017;-73
2023/05/13 07:37:14;;;;;;;22.08;20.42;;;15.10;99.90;;;;;;5208185;28;20038;-73
2023/05/13 07:39:45;;;;;;;20.33;18.65;;;15.30;99.90;;;;;;5204282;28;20363;-74
2023/05/13 07:42:17;;;;;;;18.15;16.85;;;15.80;99.90;;;;;;5172957;28;20034;-73
2023/05/13 07:44:47;;;;;;;16.92;15.80;;;16.10;99.90;;;;;;5194048;28;20076;-75
2023/05/13 07:47:19;;;;;;;17.50;16.00;;;16.20;99.90;;;;;;5197131;28;20482;-77
2023/05/13 07:49:49;;;;;;;16.50;15.07;;;16.40;99.90;;;;;;5187713;28;20026;-75
2023/05/13 07:52:20;;;;;;;15.65;14.52;;;15.70;99.90;;;;;;5205858;28;20040;-73
2023/05/13 07:54:51;;;;;;;18.35;16.65;;;15.40;99.90;;;;;;5207905;28;20377;-75
2023/05/13 07:57:22;;;;;;;18.30;16.60;;;15.40;99.90;;;;;;5189259;28;20037;-72
2023/05/13 07:59:53;;;;;;;17.65;16.30;;;15.40;99.90;;;;;;5207744;28;20086;-72
2023/05/13 08:02:24;;;;;;;17.73;16.25;;;15.50;99.90;;;;;;5190193;28;20033;-75
2023/05/13 08:04:54;;;;;;;18.23;16.77;;;16.10;99.90;;;;;;5207590;28;20025;-73
2023/05/13 08:07:25;;;;;;;18.08;16.55;;;16.00;99.90;;;;;;5207599;28;20091;-73
2023/05/13 08:09:56;;;;;;;18.10;16.70;;;16.30;99.90;;;;;;5207479;28;20043;-72
2023/05/13 08:12:27;;;;;;;16.30;14.88;;;16.60;99.90;;;;;;5207661;28;20029;-72
2023/05/13 08:14:59;;;;;;;15.75;14.35;;;16.70;99.90;;;;;;5207430;28;20034;-72
2023/05/13 08:17:30;;;;;;;16.73;15.52;;;17.00;99.90;;;;;;5207336;28;20045;-73
2023/05/13 08:20:01;;;;;;;17.73;16.23;;;16.80;99.90;;;;;;5207712;28;20026;-72
2023/05/13 08:22:31;;;;;;;18.45;17.02;;;16.60;99.90;;;;;;5193125;28;20064;-73
2023/05/13 08:25:02;;;;;;;18.27;16.88;;;16.70;99.90;;;;;;5186798;28;20022;-72
2023/05/13 08:27:34;;;;;;;18.40;16.27;;;17.00;99.90;;;;;;5168815;28;20410;-72
2023/05/13 08:30:05;;;;;;;17.48;15.88;;;17.00;99.90;;;;;;5186804;28;20033;-73
2023/05/13 08:32:36;;;;;;;18.77;17.55;;;17.00;99.90;;;;;;5186410;28;20073;-73
2023/05/13 08:35:07;;;;;;;18.02;16.73;;;17.10;99.90;;;;;;5186380;28;20427;-73
2023/05/13 08:37:38;;;;;;;19.50;18.00;;;17.10;99.90;;;;;;5168801;28;20430;-73
2023/05/13 08:40:10;;;;;;;18.75;17.50;;;17.00;99.90;;;;;;5186377;28;20022;-73
2023/05/13 08:42:45;;;;;;;18.45;17.27;;;17.40;99.90;;;;;;5186345;28;20053;-72
2023/05/13 08:45:19;;;;;;;20.40;18.90;;;17.50;99.90;;;;;;5186268;28;20080;-72
2023/05/13 08:47:55;;;;;;;19.73;18.40;;;17.60;99.90;;;;;;5186334;28;20812;-73
2023/05/13 08:50:30;;;;;;;19.63;18.13;;;17.50;99.90;;;;;;5168730;28;20083;-72
2023/05/13 08:53:01;;;;;;;17.98;16.77;;;17.70;99.90;;;;;;5186280;28;20363;-72
2023/05/13 08:55:32;;;;;;;19.48;18.17;;;17.00;99.90;;;;;;5168234;28;21021;-73
2023/05/13 08:58:03;;;;;;;19.20;17.90;;;17.10;99.90;;;;;;5185930;28;20494;-73
2023/05/13 09:00:34;;;;;;;21.02;19.30;;;17.30;99.90;;;;;;5186146;28;20382;-72
2023/05/13 09:03:05;;;;;;;20.58;19.10;;;17.60;99.90;;;;;;5185983;28;20034;-73
2023/05/13 09:05:36;;;;;;;21.10;19.45;;;17.70;99.90;;;;;;5186145;28;20351;-74
2023/05/13 09:08:08;;;;;;;20.83;19.27;;;17.80;99.90;;;;;;5167012;28;20038;-73
2023/05/13 09:10:39;;;;;;;23.90;21.70;;;17.80;99.90;;;;;;5185787;28;20029;-74
2023/05/13 09:13:16;;;;;;;20.83;19.27;;;17.90;99.90;;;;;;5185762;28;20026;-73
2023/05/13 09:15:47;;;;;;;22.02;20.40;;;18.00;99.90;;;;;;5185606;28;20030;-72
2023/05/13 09:18:18;;;;;;;23.10;21.63;;;17.80;99.90;;;;;;5167982;28;20041;-72
2023/05/13 09:20:49;;;;;;;22.90;21.33;;;18.10;99.90;;;;;;5168094;28;20080;-73
2023/05/13 09:23:22;;;;;;;24.13;22.33;;;18.00;99.90;;;;;;5167854;28;20370;-72
2023/05/13 09:25:53;;;;;;;24.42;22.85;;;18.00;99.90;;;;;;5185752;28;20084;-72
2023/05/13 09:28:24;;;;;;;25.05;23.45;;;17.90;99.90;;;;;;5186095;28;20053;-73
2023/05/13 09:30:55;;;;;;;25.00;23.25;;;18.00;99.90;;;;;;5185679;28;20040;-73
2023/05/13 09:33:31;;;;;;;21.42;20.17;;;17.80;99.90;;;;;;5185724;28;20049;-73
2023/05/13 09:36:04;;;;;;;23.35;21.77;;;18.00;99.90;;;;;;5185506;28;20109;-72
2023/05/13 09:38:37;;;;;;;26.02;24.23;;;18.20;99.90;;;;;;5167467;28;20038;-73
2023/05/13 09:41:09;;;;;;;26.30;24.38;;;18.20;99.90;;;;;;5185400;28;20500;-73
2023/05/13 09:43:41;;;;;;;24.08;22.42;;;18.20;99.90;;;;;;5189839;28;20134;-73
2023/05/13 09:46:11;;;;;;;24.48;22.75;;;18.10;99.90;;;;;;5197029;28;20496;-72
2023/05/13 09:48:42;;;;;;;24.88;22.83;;;18.30;99.90;;;;;;5205806;28;20033;-73
2023/05/13 09:51:16;;;;;;;27.05;24.80;;;18.40;99.90;;;;;;5205618;28;20033;-73
2023/05/13 09:53:47;;;;;;;24.65;22.98;;;18.50;99.90;;;;;;5205560;28;20064;-73
2023/05/13 09:56:22;;;;;;;24.85;22.88;;;18.50;99.90;;;;;;5205445;28;20434;-72
2023/05/13 09:58:54;;;;;;;24.15;22.38;;;18.70;99.90;;;;;;5187651;28;20124;-73
2023/05/13 10:01:27;;;;;;;22.20;20.40;;;18.50;99.90;;;;;;5187785;28;20554;-73
2023/05/13 10:03:58;;;;;;;22.42;20.50;;;18.40;99.90;;;;;;5205375;28;20037;-72
2023/05/13 10:06:29;;;;;;;21.48;20.02;;;18.70;99.90;;;;;;5205339;28;20033;-73
2023/05/13 10:09:04;;;;;;;19.60;18.20;;;18.70;99.90;;;;;;5187714;28;20347;-73
2023/05/13 10:11:35;;;;;;;18.90;17.48;;;18.70;99.90;;;;;;5205501;28;20033;-73
2023/05/13 10:14:07;;;;;;;18.90;17.33;;;18.70;99.90;;;;;;5205351;28;20076;-73
2023/05/13 10:16:38;;;;;;;16.55;15.35;;;18.60;99.90;;;;;;5205099;28;20425;-73
2023/05/13 10:19:09;;;;;;;16.30;14.90;;;18.70;99.90;;;;;;5189423;28;20042;-74
2023/05/13 10:21:41;;;;;;;19.27;17.77;;;18.90;99.90;;;;;;5173871;28;20030;-73
2023/05/13 10:24:12;;;;;;;17.60;16.23;;;18.70;99.90;;;;;;5191379;28;20088;-72
2023/05/13 10:26:44;;;;;;;16.88;15.68;;;18.70;99.90;;;;;;5191654;28;20050;-74
2023/05/13 10:29:15;;;;;;;17.40;16.15;;;18.90;99.90;;;;;;5196750;28;20037;-74
2023/05/13 10:31:47;;;;;;;17.92;16.73;;;18.80;99.90;;;;;;5208350;28;20021;-75
2023/05/13 10:34:18;;;;;;;18.17;16.75;;;19.00;99.90;;;;;;5211850;28;20032;-74
2023/05/13 10:37:17;;;;;;;16.15;14.85;;;19.00;99.90;;;;;;5197465;28;20038;-75
2023/05/13 10:40:03;;;;;;;16.30;14.88;;;18.70;99.90;;;;;;5212082;28;20541;-73
2023/05/13 10:42:43;;;;;;;15.63;14.52;;;18.80;99.90;;;;;;5195990;28;20036;-73
2023/05/13 10:45:16;;;;;;;15.40;14.02;;;18.70;99.90;;;;;;5203794;28;20022;-73
2023/05/13 10:47:50;;;;;;;14.55;13.45;;;19.10;99.90;;;;;;5194130;28;20021;-74
2023/05/13 10:50:24;;;;;;;16.52;15.32;;;19.00;99.90;;;;;;5211895;28;20108;-74
2023/05/13 10:52:57;;;;;;;16.60;15.30;;;19.20;99.90;;;;;;5194048;28;20037;-75
2023/05/13 10:55:28;;;;;;;16.30;14.88;;;19.20;99.90;;;;;;5211637;28;20028;-73
2023/05/13 10:58:15;;;;;;;18.30;17.02;;;19.20;99.90;;;;;;5211580;28;20120;-74
2023/05/13 11:00:46;;;;;;;19.20;17.63;;;19.00;99.90;;;;;;5211823;28;20029;-74
2023/05/13 11:03:17;;;;;;;19.27;17.80;;;19.30;99.90;;;;;;5211857;28;20041;-73
2023/05/13 11:06:15;;;;;;;17.27;16.17;;;19.50;99.90;;;;;;5211425;28;20552;-73
2023/05/13 11:08:50;;;;;;;17.20;15.55;;;19.30;99.90;;;;;;5211710;28;20025;-73
2023/05/13 11:11:22;;;;;;;16.85;15.35;;;19.20;99.90;;;;;;5211712;28;20060;-75
2023/05/13 11:14:06;;;;;;;17.05;15.60;;;19.20;99.90;;;;;;5211600;28;20135;-72
2023/05/13 11:16:37;;;;;;;17.63;16.25;;;19.40;99.90;;;;;;5211602;28;20026;-74
2023/05/13 11:19:17;;;;;;;17.67;16.23;;;19.00;99.90;;;;;;5211563;28;20032;-75
2023/05/13 11:21:53;;;;;;;17.38;16.15;;;19.20;99.90;;;;;;5206141;28;20133;-73
2023/05/13 11:24:25;;;;;;;18.98;17.67;;;19.00;99.90;;;;;;5191074;28;20025;-74
2023/05/13 11:27:00;;;;;;;19.80;18.45;;;19.40;99.90;;;;;;5173112;28;20053;-73
2023/05/13 11:29:35;;;;;;;16.88;15.70;;;19.60;99.90;;;;;;5191075;28;20101;-74
2023/05/13 11:32:08;;;;;;;21.00;19.60;;;19.30;99.90;;;;;;5187110;28;20041;-73
2023/05/13 11:34:50;;;;;;;22.98;21.38;;;19.60;99.90;;;;;;5188763;28;20076;-75
2023/05/13 11:37:22;;;;;;;22.55;20.80;;;19.60;99.90;;;;;;5189904;28;20107;-73
2023/05/13 11:39:52;;;;;;;22.00;20.50;;;19.80;99.90;;;;;;5208052;28;20101;-75
2023/05/13 11:42:24;;;;;;;21.27;19.88;;;19.80;99.90;;;;;;5190349;28;20124;-73
2023/05/13 11:44:56;;;;;;;19.38;18.15;;;19.80;99.90;;;;;;5190814;28;20058;-75
2023/05/13 11:47:27;;;;;;;22.30;20.90;;;19.80;99.90;;;;;;5208544;28;20036;-74
2023/05/13 11:49:58;;;;;;;19.27;18.13;;;19.80;99.90;;;;;;5208109;28;20017;-74
2023/05/13 11:52:29;;;;;;;20.38;19.08;;;20.10;99.90;;;;;;5207819;28;20091;-73
2023/05/13 11:54:59;;;;;;;21.42;19.92;;;19.90;99.90;;;;;;5207910;28;20018;-76
2023/05/13 11:57:33;;;;;;;20.90;19.40;;;20.00;99.90;;;;;;5207882;28;20073;-73
2023/05/13 12:00:07;;;;;;;19.75;18.35;;;19.70;99.90;;;;;;5207943;28;20039;-75
2023/05/13 12:02:43;;;;;;;17.52;16.17;;;20.00;99.90;;;;;;5207758;28;20025;-75
2023/05/13 12:05:14;;;;;;;17.95;16.42;;;19.80;99.90;;;;;;5190080;28;20052;-74
2023/05/13 12:07:45;;;;;;;19.20;17.90;;;20.00;99.90;;;;;;5207663;28;20030;-74
2023/05/13 12:10:16;;;;;;;16.17;14.98;;;20.00;99.90;;;;;;5207787;28;20030;-74
2023/05/13 12:12:49;;;;;;;17.25;15.93;;;19.80;99.90;;;;;;5207842;28;20045;-76
2023/05/13 12:15:23;;;;;;;16.50;15.40;;;20.40;99.90;;;;;;5207806;28;20021;-76
2023/05/13 12:17:58;;;;;;;18.83;16.95;;;19.90;99.90;;;;;;5207694;28;20489;-75
2023/05/13 12:20:29;;;;;;;19.88;18.40;;;20.00;99.90;;;;;;5207580;28;20025;-74
2023/05/13 12:23:10;;;;;;;19.00;17.55;;;20.10;99.90;;;;;;5189929;28;20087;-76
2023/05/13 12:25:47;;;;;;;17.60;16.50;;;20.20;99.90;;;;;;5207309;28;20109;-76
2023/05/13 12:28:25;;;;;;;16.35;15.32;;;20.20;99.90;;;;;;5207119;28;20050;-76
2023/05/13 12:31:08;;;;;;;16.83;15.18;;;20.30;99.90;;;;;;5207354;28;20017;-76
2023/05/13 12:33:48;;;;;;;15.73;14.60;;;20.10;99.90;;;;;;5207474;28;20044;-76
2023/05/13 12:36:34;;;;;;;16.92;15.55;;;20.30;99.90;;;;;;5207035;28;20025;-76
2023/05/13 12:39:09;;;;;;;16.23;15.13;;;20.30;99.90;;;;;;5189221;28;20465;-75
2023/05/13 12:41:41;;;;;;;18.88;17.67;;;20.10;99.90;;;;;;5206424;28;20030;-75
2023/05/13 12:44:14;;;;;;;17.38;16.17;;;19.90;99.90;;;;;;5188842;28;20025;-76
2023/05/13 12:47:00;;;;;;;17.20;16.05;;;20.20;99.90;;;;;;5189173;28;20018;-76
2023/05/13 12:49:30;;;;;;;18.85;17.58;;;20.10;99.90;;;;;;5189245;28;20116;-76
2023/05/13 12:52:05;;;;;;;18.17;16.75;;;20.40;99.90;;;;;;5189125;28;20108;-75
2023/05/13 12:54:39;;;;;;;16.33;15.23;;;20.20;99.90;;;;;;5207183;28;20022;-75
2023/05/13 12:57:16;;;;;;;17.33;16.13;;;20.10;99.90;;;;;;5188963;28;20041;-75